createdAt,value
2022-08-17T00:00:05.133Z,10.58
2022-08-17T00:02:42.882Z,11.55
2022-08-17T00:05:10.939Z,12.40
2022-08-17T00:07:41.860Z,12.70
2022-08-17T00:10:13.059Z,12.63
2022-08-17T00:12:45.399Z,12.60
2022-08-17T00:15:17.340Z,12.05
2022-08-17T00:17:50.574Z,11.95
2022-08-17T00:20:23.424Z,13.62
2022-08-17T00:23:09.835Z,11.63
2022-08-17T00:25:43.652Z,11.05
2022-08-17T00:28:16.543Z,12.95
2022-08-17T00:30:52.773Z,12.82
2022-08-17T00:35:59.399Z,14.07
2022-08-17T00:38:31.331Z,12.40
2022-08-17T00:41:08.309Z,12.80
2022-08-17T00:43:42.347Z,12.53
2022-08-17T00:46:21.890Z,11.78
2022-08-17T00:48:53.793Z,12.07
2022-08-17T00:51:45.676Z,13.68
2022-08-17T00:54:25.440Z,14.65
2022-08-17T00:57:03.898Z,11.78
2022-08-17T00:59:37.992Z,12.85
2022-08-17T01:02:10.993Z,13.60
2022-08-17T01:04:47.920Z,12.63
2022-08-17T01:07:21.085Z,13.15
2022-08-17T01:09:52.551Z,13.08
2022-08-17T01:12:23.997Z,14.43
2022-08-17T01:14:55.251Z,12.43
2022-08-17T01:17:27.775Z,12.85
2022-08-17T01:19:59.083Z,12.35
2022-08-17T01:22:30.146Z,12.58
2022-08-17T01:25:03.707Z,11.80
2022-08-17T01:27:35.105Z,12.03
2022-08-17T01:30:57.975Z,11.97
2022-08-17T01:32:42.405Z,11.90
2022-08-17T01:35:13.738Z,12.13
2022-08-17T01:37:45.400Z,12.55
2022-08-17T01:40:34.037Z,11.63
2022-08-17T01:43:13.951Z,12.13
2022-08-17T01:45:50.229Z,12.28
2022-08-17T01:48:24.359Z,11.55
2022-08-17T01:50:56.748Z,12.43
2022-08-17T01:53:33.835Z,11.00
2022-08-17T01:56:10.758Z,13.10
2022-08-17T01:58:44.046Z,12.50
2022-08-17T02:01:17.271Z,12.90
2022-08-17T02:03:56.203Z,12.37
2022-08-17T02:06:27.539Z,11.85
2022-08-17T02:09:01.727Z,11.68
2022-08-17T02:11:26.683Z,11.65
2022-08-17T02:14:03.202Z,12.15
2022-08-17T02:16:36.894Z,12.13
2022-08-17T02:19:03.460Z,12.60
2022-08-17T02:21:34.709Z,12.35
2022-08-17T02:24:08.440Z,12.60
2022-08-17T02:26:39.385Z,13.60
2022-08-17T02:29:11.185Z,13.25
2022-08-17T02:31:42.121Z,13.60
2022-08-17T02:34:14.430Z,13.58
2022-08-17T02:36:45.563Z,13.18
2022-08-17T02:39:18.696Z,12.50
2022-08-17T02:41:49.526Z,12.40
2022-08-17T02:44:38.942Z,12.50
2022-08-17T02:46:53.717Z,14.35
2022-08-17T02:49:24.721Z,13.65
2022-08-17T02:51:57.053Z,14.35
2022-08-17T02:54:40.354Z,14.63
2022-08-17T02:57:00.578Z,13.30
2022-08-17T02:59:33.585Z,13.43
2022-08-17T03:02:06.432Z,13.30
2022-08-17T03:04:39.386Z,12.43
2022-08-17T03:07:12.414Z,12.98
2022-08-17T03:09:43.567Z,12.88
2022-08-17T03:12:15.752Z,13.13
2022-08-17T03:14:46.732Z,12.05
2022-08-17T03:17:17.716Z,13.93
2022-08-17T03:19:48.692Z,13.78
2022-08-17T03:22:36.129Z,13.00
2022-08-17T03:24:52.342Z,13.75
2022-08-17T03:27:24.635Z,14.00
2022-08-17T03:29:55.995Z,13.95
2022-08-17T03:32:26.966Z,14.07
2022-08-17T03:35:01.700Z,12.45
2022-08-17T03:37:32.775Z,13.85
2022-08-17T03:40:05.032Z,14.18
2022-08-17T03:42:38.543Z,13.85
2022-08-17T03:45:20.262Z,14.23
2022-08-17T03:48:09.307Z,13.98
2022-08-17T03:50:59.422Z,13.90
2022-08-17T03:53:48.665Z,12.40
2022-08-17T03:56:37.510Z,12.85
2022-08-17T03:59:08.676Z,12.00
2022-08-17T04:01:43.173Z,12.23
2022-08-17T04:04:14.869Z,12.53
2022-08-17T04:06:46.139Z,14.25
2022-08-17T04:09:17.225Z,11.63
2022-08-17T04:11:48.387Z,13.28
2022-08-17T04:14:19.414Z,14.47
2022-08-17T04:16:50.303Z,13.98
2022-08-17T04:19:21.438Z,13.88
2022-08-17T04:21:54.261Z,12.85
2022-08-17T04:24:27.540Z,12.60
2022-08-17T04:26:58.686Z,13.05
2022-08-17T04:29:54.217Z,13.32
2022-08-17T04:32:04.214Z,12.88
2022-08-17T04:34:35.355Z,13.62
2022-08-17T04:37:06.462Z,12.37
2022-08-17T04:39:37.774Z,12.18
2022-08-17T04:42:11.941Z,12.73
2022-08-17T04:44:43.015Z,13.75
2022-08-17T04:47:14.453Z,12.10
2022-08-17T04:49:46.933Z,15.70
2022-08-17T04:52:43.026Z,13.00
2022-08-17T04:54:52.001Z,16.25
2022-08-17T04:57:23.092Z,15.55
2022-08-17T04:59:54.119Z,14.28
2022-08-17T05:02:25.041Z,15.30
2022-08-17T05:04:56.284Z,13.08
2022-08-17T05:07:31.384Z,12.60
2022-08-17T05:10:00.519Z,12.25
2022-08-17T05:12:31.696Z,13.08
2022-08-17T05:15:02.543Z,11.83
2022-08-17T05:17:33.516Z,14.05
2022-08-17T05:20:05.373Z,14.87
2022-08-17T05:22:37.262Z,12.10
2022-08-17T05:25:09.348Z,22.00
2022-08-17T05:27:42.357Z,19.57
2022-08-17T05:30:16.704Z,21.20
2022-08-17T05:32:55.810Z,15.78
2022-08-17T05:35:29.902Z,21.68
2022-08-17T05:38:02.139Z,20.23
2022-08-17T05:40:33.659Z,21.52
2022-08-17T05:43:16.387Z,20.23
2022-08-17T05:46:09.864Z,20.23
2022-08-17T05:48:43.651Z,22.30
2022-08-17T05:51:23.360Z,21.35
2022-08-17T05:54:23.207Z,22.05
2022-08-17T05:57:30.889Z,19.77
2022-08-17T06:00:11.312Z,20.92
2022-08-17T06:03:18.615Z,20.95
2022-08-17T06:06:07.867Z,20.90
2022-08-17T06:08:41.596Z,21.73
2022-08-17T06:11:35.337Z,19.17
2022-08-17T06:14:33.638Z,21.73
2022-08-17T06:17:07.829Z,23.47
2022-08-17T06:19:41.779Z,21.85
2022-08-17T06:22:16.108Z,22.50
2022-08-17T06:24:50.535Z,22.45
2022-08-17T06:27:25.106Z,22.30
2022-08-17T06:29:59.607Z,22.43
2022-08-17T06:32:31.582Z,24.30
2022-08-17T06:35:04.883Z,24.55
2022-08-17T06:37:55.509Z,22.30
2022-08-17T06:40:38.313Z,22.62
2022-08-17T06:43:21.681Z,23.35
2022-08-17T06:46:07.650Z,22.37
2022-08-17T06:48:47.531Z,21.90
2022-08-17T06:51:21.322Z,22.48
2022-08-17T06:53:59.524Z,22.17
2022-08-17T06:57:06.999Z,21.80
2022-08-17T06:59:56.134Z,22.77
2022-08-17T07:02:16.509Z,22.50
2022-08-17T07:04:48.712Z,21.80
2022-08-17T07:07:39.971Z,21.80
2022-08-17T07:10:12.166Z,20.80
2022-08-17T07:12:46.031Z,20.50
2022-08-17T07:15:20.023Z,18.67
2022-08-17T07:17:51.356Z,18.70
2022-08-17T07:20:23.757Z,16.12
2022-08-17T07:23:12.644Z,17.75
2022-08-17T07:25:43.760Z,16.62
2022-08-17T07:28:16.268Z,18.35
2022-08-17T07:30:56.114Z,15.95
2022-08-17T07:33:29.939Z,15.93
2022-08-17T07:36:02.821Z,16.52
2022-08-17T07:38:35.943Z,16.25
2022-08-17T07:41:11.389Z,18.00
2022-08-17T07:46:40.859Z,15.90
2022-08-17T07:49:15.705Z,15.23
2022-08-17T07:51:50.822Z,14.60
2022-08-17T07:54:24.321Z,14.60
2022-08-17T07:57:03.868Z,14.55
2022-08-17T07:59:37.988Z,13.38
2022-08-17T08:02:47.917Z,15.60
2022-08-17T08:05:49.483Z,14.70
2022-08-17T08:08:03.703Z,13.90
2022-08-17T08:10:38.795Z,13.15
2022-08-17T08:13:15.068Z,12.53
2022-08-17T08:15:54.317Z,12.10
2022-08-17T08:18:38.767Z,13.72
2022-08-17T08:21:07.693Z,12.30
2022-08-17T08:23:53.971Z,12.58
2022-08-17T08:26:37.042Z,12.70
2022-08-17T08:29:13.800Z,11.57
2022-08-17T08:32:21.493Z,12.40
2022-08-17T08:35:10.822Z,12.47
2022-08-17T08:37:52.683Z,12.78
2022-08-17T08:41:01.421Z,12.40
2022-08-17T08:44:08.987Z,11.50
2022-08-17T08:47:01.239Z,11.38
2022-08-17T08:50:08.805Z,10.72
2022-08-17T08:52:54.987Z,11.53
2022-08-17T08:55:50.279Z,12.20
2022-08-17T08:58:31.415Z,11.80
2022-08-17T09:01:01.581Z,10.38
2022-08-17T09:04:06.610Z,9.75
2022-08-17T09:06:38.894Z,10.78
2022-08-17T09:09:42.280Z,11.10
2022-08-17T09:12:17.335Z,11.20
2022-08-17T09:17:28.578Z,10.78
2022-08-17T09:20:05.426Z,11.20
2022-08-17T09:22:42.222Z,10.60
2022-08-17T09:25:15.994Z,10.53
2022-08-17T09:28:07.871Z,11.83
2022-08-17T09:30:54.244Z,10.00
2022-08-17T09:33:28.184Z,9.55
2022-08-17T09:36:23.168Z,9.95
2022-08-17T09:39:03.273Z,10.53
2022-08-17T09:41:48.768Z,9.85
2022-08-17T09:44:23.069Z,10.23
2022-08-17T09:47:14.351Z,11.20
2022-08-17T09:50:05.062Z,10.00
2022-08-17T09:52:36.831Z,9.50
2022-08-17T09:55:09.003Z,10.10
2022-08-17T09:57:46.090Z,9.88
2022-08-17T10:00:27.803Z,10.30
2022-08-17T10:03:15.122Z,8.80
2022-08-17T10:05:57.090Z,9.50
2022-08-17T10:08:40.764Z,9.40
2022-08-17T10:11:33.826Z,10.00
2022-08-17T10:14:43.835Z,10.53
2022-08-17T10:17:18.343Z,9.43
2022-08-17T10:19:54.962Z,9.70
2022-08-17T10:22:51.183Z,9.83
2022-08-17T10:25:54.100Z,9.30
2022-08-17T10:28:20.131Z,8.70
2022-08-17T10:30:49.711Z,9.38
2022-08-17T10:33:26.718Z,8.58
2022-08-17T10:36:10.712Z,9.23
2022-08-17T10:39:00.842Z,9.00
2022-08-17T10:41:39.682Z,9.10
2022-08-17T10:44:38.859Z,8.70
2022-08-17T10:47:19.919Z,7.90
2022-08-17T10:49:56.601Z,8.25
2022-08-17T10:52:33.189Z,8.10
2022-08-17T10:55:11.125Z,8.15
2022-08-17T10:57:45.431Z,7.72
2022-08-17T11:00:48.778Z,7.62
2022-08-17T11:03:25.385Z,8.00
2022-08-17T11:06:33.362Z,8.53
2022-08-17T11:09:33.599Z,7.50
2022-08-17T11:12:16.187Z,7.40
2022-08-17T11:14:55.578Z,8.03
2022-08-17T11:17:53.973Z,7.58
2022-08-17T11:20:35.277Z,8.35
2022-08-17T11:23:29.773Z,8.30
2022-08-17T11:26:04.641Z,7.97
2022-08-17T11:28:38.762Z,8.68
2022-08-17T11:31:39.291Z,8.60
2022-08-17T11:34:07.735Z,8.57
2022-08-17T11:37:04.060Z,9.08
2022-08-17T11:40:05.084Z,8.50
2022-08-17T11:42:51.126Z,8.23
2022-08-17T11:45:32.450Z,8.75
2022-08-17T11:48:28.425Z,7.92
2022-08-17T11:51:30.851Z,7.03
2022-08-17T11:54:32.902Z,8.58
2022-08-17T11:56:42.835Z,7.87
2022-08-17T11:59:36.460Z,8.00
2022-08-17T12:02:29.859Z,9.08
2022-08-17T12:05:20.926Z,8.48
2022-08-17T12:08:07.298Z,7.92
2022-08-17T12:10:41.144Z,8.10
2022-08-17T12:13:17.481Z,7.62
2022-08-17T12:15:51.263Z,7.85
2022-08-17T12:18:31.688Z,7.62
2022-08-17T12:21:08.708Z,10.95
2022-08-17T12:23:51.518Z,8.33
2022-08-17T12:26:25.649Z,9.93
2022-08-17T12:28:59.657Z,8.07
2022-08-17T12:31:35.200Z,7.15
2022-08-17T12:34:07.138Z,6.60
2022-08-17T12:36:39.378Z,6.65
2022-08-17T12:39:13.682Z,7.00
2022-08-17T12:41:47.350Z,6.90
2022-08-17T12:44:30.018Z,7.00
2022-08-17T12:47:10.408Z,7.20
2022-08-17T12:49:43.713Z,6.85
2022-08-17T12:52:33.396Z,6.53
2022-08-17T12:55:07.348Z,6.47
2022-08-17T12:57:44.626Z,6.30
2022-08-17T13:00:23.119Z,7.42
2022-08-17T13:03:02.792Z,8.13
2022-08-17T13:05:39.510Z,6.87
2022-08-17T13:08:28.721Z,6.40
2022-08-17T13:11:02.239Z,7.42
2022-08-17T13:13:36.085Z,6.03
2022-08-17T13:16:25.462Z,6.30
2022-08-17T13:19:10.987Z,6.42
2022-08-17T13:21:48.530Z,6.62
2022-08-17T13:24:25.004Z,6.20
2022-08-17T13:27:08.227Z,7.20
2022-08-17T13:29:40.400Z,6.15
2022-08-17T13:32:14.751Z,5.85
2022-08-17T13:35:11.998Z,6.15
2022-08-17T13:37:33.081Z,6.08
2022-08-17T13:40:09.982Z,8.43
2022-08-17T13:42:59.580Z,6.85
2022-08-17T13:45:39.177Z,6.62
2022-08-17T13:48:29.995Z,8.23
2022-08-17T13:51:03.613Z,6.67
2022-08-17T13:53:40.418Z,7.22
2022-08-17T13:56:36.912Z,6.92
2022-08-17T13:59:02.668Z,5.83
2022-08-17T14:01:39.801Z,5.65
2022-08-17T14:04:13.694Z,6.58
2022-08-17T14:06:54.299Z,6.67
2022-08-17T14:09:36.830Z,6.28
2022-08-17T14:12:07.396Z,7.92
2022-08-17T14:14:38.748Z,6.97
2022-08-17T14:17:09.899Z,6.67
2022-08-17T14:19:41.264Z,8.60
2022-08-17T14:22:18.016Z,6.30
2022-08-17T14:24:49.091Z,6.37
2022-08-17T14:27:20.791Z,8.05
2022-08-17T14:29:51.633Z,7.00
2022-08-17T14:32:26.326Z,6.12
2022-08-17T14:34:58.064Z,6.00
2022-08-17T14:37:31.221Z,6.35
2022-08-17T14:40:04.965Z,6.30
2022-08-17T14:42:38.097Z,6.17
2022-08-17T14:45:29.716Z,6.87
2022-08-17T14:47:46.855Z,6.40
2022-08-17T14:50:19.980Z,6.80
2022-08-17T14:52:51.248Z,6.20
2022-08-17T14:55:22.223Z,7.53
2022-08-17T14:57:53.579Z,6.20
2022-08-17T15:00:27.198Z,7.62
2022-08-17T15:03:00.558Z,8.58
2022-08-17T15:05:34.851Z,7.75
2022-08-17T15:08:07.554Z,6.83
2022-08-17T15:10:39.594Z,7.90
2022-08-17T15:13:25.611Z,6.28
2022-08-17T15:15:56.792Z,6.40
2022-08-17T15:18:28.319Z,6.45
2022-08-17T15:20:59.388Z,6.78
2022-08-17T15:23:30.272Z,8.30
2022-08-17T15:26:01.423Z,7.45
2022-08-17T15:28:32.274Z,6.35
2022-08-17T15:31:03.742Z,9.03
2022-08-17T15:33:35.120Z,7.33
2022-08-17T15:36:08.067Z,8.10
2022-08-17T15:38:44.394Z,6.65
2022-08-17T15:41:18.689Z,7.85
2022-08-17T15:43:51.396Z,7.13
2022-08-17T15:46:25.879Z,8.55
2022-08-17T15:49:01.208Z,7.70
2022-08-17T15:51:34.797Z,8.00
2022-08-17T15:54:18.704Z,7.60
2022-08-17T15:56:42.669Z,7.15
2022-08-17T15:59:13.876Z,7.50
2022-08-17T16:03:09.853Z,7.58
2022-08-17T16:04:29.838Z,7.22
2022-08-17T16:06:53.875Z,7.45
2022-08-17T16:09:24.818Z,7.12
2022-08-17T16:11:57.174Z,7.78
2022-08-17T16:14:34.161Z,7.15
2022-08-17T16:17:05.664Z,7.70
2022-08-17T16:19:40.187Z,9.83
2022-08-17T16:22:13.588Z,7.62
2022-08-17T16:24:57.005Z,7.12
2022-08-17T16:27:19.841Z,7.85
2022-08-17T16:29:55.510Z,7.10
2022-08-17T16:32:31.474Z,9.75
2022-08-17T16:35:09.445Z,7.60
2022-08-17T16:37:41.909Z,7.40
2022-08-17T16:40:16.516Z,8.10
2022-08-17T16:42:50.626Z,10.28
2022-08-17T16:45:24.526Z,8.97
2022-08-17T16:47:58.371Z,7.47
2022-08-17T16:50:29.411Z,7.50
2022-08-17T16:53:11.005Z,7.12
2022-08-17T16:55:43.541Z,7.83
2022-08-17T16:58:14.913Z,7.30
2022-08-17T17:00:46.688Z,7.00
2022-08-17T17:03:20.776Z,7.78
2022-08-17T17:06:23.734Z,8.93
2022-08-17T17:09:09.638Z,7.22
2022-08-17T17:11:47.473Z,8.23
2022-08-17T17:14:28.615Z,7.22
2022-08-17T17:17:03.613Z,7.03
2022-08-17T17:19:46.068Z,8.05
2022-08-17T17:22:26.238Z,8.25
2022-08-17T17:25:09.157Z,8.43
2022-08-17T17:27:49.152Z,7.62
2022-08-17T17:30:33.853Z,7.83
2022-08-17T17:33:10.252Z,8.58
2022-08-17T17:36:06.977Z,8.08
2022-08-17T17:38:46.514Z,7.58
2022-08-17T17:41:26.365Z,7.40
2022-08-17T17:44:02.732Z,7.80
2022-08-17T17:46:38.448Z,7.50
2022-08-17T17:49:14.812Z,7.42
2022-08-17T17:52:13.352Z,8.23
2022-08-17T17:54:52.750Z,8.78
2022-08-17T17:57:38.184Z,8.33
2022-08-17T18:00:25.530Z,8.10
2022-08-17T18:03:16.112Z,8.35
2022-08-17T18:06:23.777Z,7.95
2022-08-17T18:09:00.362Z,7.95
2022-08-17T18:11:42.871Z,8.23
2022-08-17T18:14:17.719Z,7.83
2022-08-17T18:16:50.367Z,8.23
2022-08-17T18:19:22.162Z,8.13
2022-08-17T18:22:14.842Z,8.10
2022-08-17T18:24:48.826Z,8.85
2022-08-17T18:27:34.719Z,8.48
2022-08-17T18:30:20.797Z,9.08
2022-08-17T18:32:52.038Z,8.55
2022-08-17T18:35:27.542Z,8.75
2022-08-17T18:38:01.407Z,8.23
2022-08-17T18:40:36.200Z,8.35
2022-08-17T18:43:13.303Z,8.53
2022-08-17T18:45:54.276Z,8.60
2022-08-17T18:48:33.069Z,9.38
2022-08-17T18:51:26.229Z,9.25
2022-08-17T18:54:06.894Z,9.85
2022-08-17T18:56:41.049Z,9.88
2022-08-17T18:59:29.419Z,10.70
2022-08-17T19:02:16.019Z,9.58
2022-08-17T19:05:09.173Z,9.45
2022-08-17T19:07:45.986Z,10.10
2022-08-17T19:10:46.245Z,9.98
2022-08-17T19:13:14.383Z,9.33
2022-08-17T19:16:12.127Z,10.70
2022-08-17T19:18:34.865Z,9.78
2022-08-17T19:21:14.848Z,9.75
2022-08-17T19:24:22.502Z,10.65
2022-08-17T19:27:16.217Z,8.98
2022-08-17T19:29:54.840Z,11.93
2022-08-17T19:32:32.618Z,9.83
2022-08-17T19:35:05.060Z,10.10
2022-08-17T19:37:55.180Z,10.00
2022-08-17T19:40:54.190Z,9.73
2022-08-17T19:43:24.421Z,9.33
2022-08-17T19:46:02.245Z,9.43
2022-08-17T19:48:52.829Z,10.25
2022-08-17T19:51:50.922Z,13.25
2022-08-17T19:54:35.167Z,10.30
2022-08-17T19:57:12.159Z,9.83
2022-08-17T19:59:52.861Z,10.28
2022-08-17T20:02:39.196Z,11.12
2022-08-17T20:05:16.198Z,10.72
2022-08-17T20:07:57.248Z,10.90
2022-08-17T20:10:54.517Z,10.10
2022-08-17T20:13:32.776Z,10.70
2022-08-17T20:15:59.591Z,11.12
2022-08-17T20:18:44.388Z,9.98
2022-08-17T20:21:22.488Z,10.75
2022-08-17T20:24:05.920Z,10.28
2022-08-17T20:26:58.461Z,11.30
2022-08-17T20:29:40.174Z,10.65
2022-08-17T20:32:20.600Z,9.88
2022-08-17T20:34:54.403Z,10.13
2022-08-17T20:37:28.404Z,10.93
2022-08-17T20:40:02.377Z,12.95
2022-08-17T20:42:35.313Z,12.60
2022-08-17T20:45:26.877Z,14.55
2022-08-17T20:48:35.665Z,13.78
2022-08-17T20:50:44.140Z,14.87
2022-08-17T20:53:18.151Z,14.45
2022-08-17T20:55:53.008Z,16.12
2022-08-17T20:58:31.411Z,17.77
2022-08-17T21:01:14.236Z,18.00
2022-08-17T21:03:51.170Z,18.92
2022-08-17T21:06:23.349Z,27.20
2022-08-17T21:09:03.476Z,29.92
2022-08-17T21:12:03.187Z,35.65
2022-08-17T21:14:30.240Z,49.50
2022-08-17T21:17:17.470Z,39.48
2022-08-17T21:20:12.370Z,39.85
2022-08-17T21:23:09.779Z,33.23
2022-08-17T21:26:11.219Z,26.93
2022-08-17T21:29:00.013Z,22.40
2022-08-17T21:31:40.031Z,21.77
2022-08-17T21:34:30.725Z,22.60
2022-08-17T21:37:35.362Z,23.52
2022-08-17T21:40:21.721Z,22.37
2022-08-17T21:42:58.722Z,20.15
2022-08-17T21:45:39.235Z,17.15
2022-08-17T21:48:13.505Z,16.52
2022-08-17T21:50:48.642Z,15.00
2022-08-17T21:53:28.114Z,14.87
2022-08-17T21:55:58.024Z,13.93
2022-08-17T21:58:34.520Z,13.08
2022-08-17T22:01:14.667Z,14.60
2022-08-17T22:03:48.484Z,12.90
2022-08-17T22:06:39.094Z,13.18
2022-08-17T22:09:19.392Z,12.50
2022-08-17T22:12:02.992Z,13.10
2022-08-17T22:14:53.346Z,13.15
2022-08-17T22:17:42.844Z,14.25
2022-08-17T22:20:17.196Z,15.25
2022-08-17T22:23:08.948Z,14.10
2022-08-17T22:26:03.009Z,14.05
2022-08-17T22:28:43.280Z,13.70
2022-08-17T22:31:17.778Z,13.90
2022-08-17T22:33:51.210Z,13.93
2022-08-17T22:36:37.596Z,13.62
2022-08-17T22:39:14.580Z,13.28
2022-08-17T22:41:51.311Z,13.50
2022-08-17T22:44:32.221Z,13.38
2022-08-17T22:47:11.330Z,14.68
2022-08-17T22:50:00.332Z,14.25
2022-08-17T22:53:09.108Z,14.63
2022-08-17T22:55:59.641Z,14.35
2022-08-17T22:58:59.303Z,15.03
2022-08-17T23:01:33.129Z,15.03
2022-08-17T23:04:09.527Z,14.05
2022-08-17T23:06:45.385Z,15.43
2022-08-17T23:09:16.835Z,16.32
2022-08-17T23:11:50.910Z,16.07
2022-08-17T23:14:23.255Z,16.93
2022-08-17T23:16:54.326Z,18.30
2022-08-17T23:19:25.709Z,16.87
2022-08-17T23:21:58.872Z,17.40
2022-08-17T23:24:32.980Z,16.52
2022-08-17T23:27:06.782Z,18.70
2022-08-17T23:29:39.726Z,16.05
2022-08-17T23:32:15.098Z,15.60
2022-08-17T23:34:48.623Z,16.93
2022-08-17T23:37:20.991Z,15.50
2022-08-17T23:39:51.803Z,15.38
2022-08-17T23:42:23.039Z,14.83
2022-08-17T23:44:54.099Z,16.12
2022-08-17T23:47:25.638Z,16.45
2022-08-17T23:49:56.667Z,16.25
2022-08-17T23:52:30.966Z,15.90
2022-08-17T23:55:01.981Z,15.63
2022-08-17T23:57:35.944Z,17.17
